Time;durP1;ratioP1;P1;durP2;ratioP2;P2;SDS_P1;SDS_P2;PMS_P1;PMS_P2;Temp;Humidity;BMP_temperature;BMP_pressure;BME280_temperature;BME280_humidity;BME280_pressure;Samples;Min_cycle;Max_cycle;Signal;HPM_P1;HPM_P2
2024/01/19 00:02:07;;;;;;;25.23;14.27;;;-1.30;99.80;;;0.63;64.77;97190.72;5063535;28;20067;-50
2024/01/19 00:04:35;;;;;;;26.83;13.43;;;-1.30;99.30;;;0.66;64.42;97193.13;5073582;28;20055;-51
2024/01/19 00:07:02;;;;;;;25.30;12.93;;;-1.30;99.50;;;0.55;65.17;97190.44;5073621;28;20036;-50
2024/01/19 00:09:30;;;;;;;26.27;12.50;;;-1.40;97.70;;;0.56;64.94;97195.56;5071418;28;20044;-50
2024/01/19 00:11:58;;;;;;;25.73;13.47;;;-1.40;99.20;;;0.54;65.32;97201.84;5073142;28;20089;-53
2024/01/19 00:14:28;;;;;;;26.77;14.20;;;-1.40;99.30;;;0.57;64.77;97202.47;5073555;28;20079;-53
2024/01/19 00:16:55;;;;;;;22.03;12.80;;;-1.40;99.10;;;0.58;64.89;97201.53;5073561;28;20056;-53
2024/01/19 00:19:23;;;;;;;22.27;12.63;;;-1.40;98.90;;;0.56;64.45;97211.28;5073520;28;20052;-52
2024/01/19 00:21:51;;;;;;;25.23;14.40;;;-1.40;98.20;;;0.57;64.77;97209.50;5072789;28;20052;-52
2024/01/19 00:24:19;;;;;;;24.80;13.17;;;-1.40;99.70;;;0.51;65.36;97223.03;5073102;28;20064;-54
2024/01/19 00:26:47;;;;;;;24.77;13.10;;;-1.40;98.90;;;0.59;64.69;97223.31;5072547;28;20041;-52
2024/01/19 00:29:15;;;;;;;24.60;13.57;;;-1.30;99.90;;;0.71;64.60;97229.47;5073317;28;20044;-50
2024/01/19 00:31:45;;;;;;;27.23;12.70;;;-1.20;99.90;;;0.73;64.94;97233.63;5072806;28;20598;-53
2024/01/19 00:34:14;;;;;;;25.23;13.40;;;-1.10;99.90;;;0.67;64.35;97233.25;5073272;28;20048;-50
2024/01/19 00:36:42;;;;;;;23.90;14.17;;;-1.20;98.30;;;0.72;64.35;97228.53;5073189;28;20036;-50
2024/01/19 00:39:09;;;;;;;27.10;14.53;;;-1.20;99.50;;;0.78;65.20;97235.94;5064691;28;20036;-52
2024/01/19 00:41:37;;;;;;;23.87;15.00;;;-1.10;99.00;;;0.68;64.38;97245.41;5072733;28;20044;-52
2024/01/19 00:44:05;;;;;;;29.73;15.53;;;-1.20;98.90;;;0.71;64.90;97245.19;5072744;28;20041;-50
2024/01/19 00:46:32;;;;;;;25.40;14.37;;;-1.30;99.40;;;0.76;64.63;97249.16;5073022;28;20502;-52
2024/01/19 00:49:00;;;;;;;26.10;13.70;;;-1.20;99.90;;;0.74;64.67;97256.28;5072660;28;20526;-53
2024/01/19 00:51:28;;;;;;;29.50;13.60;;;-1.10;97.50;;;0.76;64.94;97256.19;5087825;28;20051;-51
2024/01/19 00:53:55;;;;;;;27.40;14.07;;;-1.10;98.40;;;0.74;64.71;97260.72;5071499;28;20044;-53
2024/01/19 00:56:23;;;;;;;22.43;12.43;;;-1.20;97.90;;;0.68;64.49;97263.72;5072840;28;20044;-51
2024/01/19 00:58:51;;;;;;;24.13;12.60;;;-1.20;98.40;;;0.67;65.09;97265.53;5072643;28;20048;-54
2024/01/19 01:01:19;;;;;;;28.20;13.50;;;-1.20;98.60;;;0.61;65.15;97263.34;5071827;28;20055;-52
2024/01/19 01:03:48;;;;;;;29.67;13.70;;;-1.30;98.70;;;0.63;64.97;97263.25;5070832;28;20451;-52
2024/01/19 01:06:15;;;;;;;22.97;13.33;;;-1.30;99.20;;;0.69;65.02;97268.88;5072451;28;20040;-51
2024/01/19 01:08:44;;;;;;;26.33;14.03;;;-1.20;99.60;;;0.71;64.77;97274.00;5072493;28;20044;-50
2024/01/19 01:11:11;;;;;;;26.83;13.47;;;-1.20;99.60;;;0.71;65.21;97274.84;5054529;28;20044;-51
2024/01/19 01:13:39;;;;;;;23.40;13.17;;;-1.20;99.10;;;0.74;65.24;97279.03;5070605;28;20416;-52
2024/01/19 01:16:07;;;;;;;24.03;13.13;;;-1.10;98.20;;;0.83;64.80;97286.22;5071136;28;20048;-53
2024/01/19 01:18:34;;;;;;;26.97;13.43;;;-1.10;98.60;;;0.86;64.40;97298.31;5072588;28;20049;-52
2024/01/19 01:21:03;;;;;;;23.50;12.73;;;-1.10;99.40;;;0.85;64.97;97297.44;5072134;28;20048;-53
2024/01/19 01:23:31;;;;;;;24.20;13.53;;;-1.10;97.80;;;0.87;64.32;97302.56;5072052;28;20055;-50
2024/01/19 01:25:59;;;;;;;25.40;12.77;;;-1.10;98.80;;;0.89;64.16;97303.31;5071737;28;20047;-51
2024/01/19 01:28:26;;;;;;;28.13;13.00;;;-1.10;98.20;;;0.88;64.86;97310.34;5072076;28;20045;-48
2024/01/19 01:30:54;;;;;;;25.73;12.90;;;-1.10;98.90;;;0.84;63.90;97321.16;5072122;28;20041;-50
2024/01/19 01:33:22;;;;;;;26.77;13.23;;;-1.10;98.50;;;0.85;64.58;97331.50;5071431;28;20428;-52
2024/01/19 01:35:50;;;;;;;27.13;15.00;;;-1.20;98.50;;;0.88;63.85;97326.06;5071750;28;20048;-49
2024/01/19 01:38:17;;;;;;;21.53;13.80;;;-1.10;99.00;;;0.84;64.15;97324.63;5071152;28;20045;-48
2024/01/19 01:40:45;;;;;;;30.63;15.07;;;-1.20;98.50;;;0.84;64.66;97335.09;5070652;28;20496;-51
2024/01/19 01:43:23;;;;;;;24.53;13.53;;;-1.20;99.30;;;0.93;64.73;97338.84;5071532;28;20040;-49
2024/01/19 01:45:52;;;;;;;30.90;14.60;;;-1.00;99.90;;;1.00;64.46;97342.72;5071624;28;20044;-48
2024/01/19 01:48:23;;;;;;;23.07;13.37;;;-0.90;98.70;;;1.00;63.99;97347.13;5078722;28;20048;-49
2024/01/19 01:50:53;;;;;;;24.93;13.53;;;-0.90;96.70;;;0.94;63.97;97349.22;5071389;28;20045;-49
2024/01/19 01:53:21;;;;;;;26.10;12.30;;;-1.00;97.40;;;0.95;64.14;97352.66;5070074;28;20504;-51
2024/01/19 01:55:49;;;;;;;30.10;14.40;;;-1.00;97.80;;;1.02;64.24;97355.72;5070273;28;20456;-49
2024/01/19 01:58:18;;;;;;;24.07;13.80;;;-0.90;98.70;;;1.05;63.96;97356.34;5071394;28;20048;-49
2024/01/19 02:00:47;;;;;;;22.27;12.50;;;-0.80;97.40;;;1.08;64.30;97365.75;5067873;28;20055;-53
2024/01/19 02:03:15;;;;;;;25.93;13.77;;;-0.80;96.60;;;1.02;64.47;97358.34;5062001;28;20649;-49
2024/01/19 02:05:42;;;;;;;25.60;13.97;;;-0.90;95.50;;;0.89;63.78;97358.34;5070194;28;20080;-48
2024/01/19 02:08:10;;;;;;;22.80;13.20;;;-1.00;96.90;;;0.87;64.16;97370.72;5071236;28;20044;-50
2024/01/19 02:10:39;;;;;;;24.50;13.93;;;-1.10;96.80;;;0.84;63.95;97369.16;5070259;28;20048;-48
2024/01/19 02:13:06;;;;;;;31.70;13.70;;;-1.00;97.00;;;0.88;64.38;97370.63;5070965;28;20427;-52
2024/01/19 02:15:37;;;;;;;25.37;12.67;;;-1.10;97.30;;;0.79;64.00;97371.25;5072090;28;20056;-52
2024/01/19 02:18:05;;;;;;;26.17;13.13;;;-1.10;96.40;;;0.79;64.02;97371.25;5070066;28;20071;-49
2024/01/19 02:20:33;;;;;;;22.97;12.93;;;-1.10;98.00;;;0.86;64.58;97379.56;5071676;28;20044;-51
2024/01/19 02:23:04;;;;;;;24.43;13.37;;;-1.00;98.00;;;0.85;63.69;97375.25;5071022;28;20120;-53
2024/01/19 02:25:32;;;;;;;20.87;12.90;;;-1.10;96.70;;;0.81;64.44;97381.66;5069974;28;20416;-48
2024/01/19 02:28:00;;;;;;;23.37;12.30;;;-1.20;97.70;;;0.84;63.90;97389.31;5069375;28;20052;-50
2024/01/19 02:30:29;;;;;;;23.07;12.60;;;-1.10;97.30;;;0.67;64.24;97380.81;5071175;28;20523;-50
2024/01/19 02:32:57;;;;;;;20.17;11.90;;;-1.20;97.50;;;0.77;63.73;97379.22;5070359;28;20077;-52
2024/01/19 02:35:25;;;;;;;25.27;12.33;;;-1.20;97.60;;;0.75;64.32;97373.25;5070794;28;20036;-48
2024/01/19 02:37:52;;;;;;;23.93;12.37;;;-1.20;97.70;;;0.79;63.86;97384.38;5070865;28;20495;-53
2024/01/19 02:40:20;;;;;;;21.97;12.57;;;-1.20;97.40;;;0.74;63.87;97382.06;5070992;28;20045;-53
2024/01/19 02:42:48;;;;;;;23.23;12.60;;;-1.20;97.30;;;0.65;64.14;97384.50;5070557;28;20049;-54
2024/01/19 02:45:15;;;;;;;21.43;12.57;;;-1.30;97.70;;;0.69;64.41;97380.72;5085965;28;20423;-51
2024/01/19 02:47:43;;;;;;;21.87;12.50;;;-1.30;98.70;;;0.71;64.38;97390.13;5071069;28;20045;-52
2024/01/19 02:50:11;;;;;;;25.07;13.67;;;-1.30;96.90;;;0.73;64.47;97401.34;5070470;28;20041;-53
2024/01/19 02:52:38;;;;;;;26.33;11.83;;;-1.20;98.50;;;0.77;64.24;97401.97;5070630;28;20051;-52
2024/01/19 02:55:07;;;;;;;25.90;12.27;;;-1.20;97.60;;;0.77;63.83;97400.19;5070701;28;20040;-51
2024/01/19 02:57:35;;;;;;;22.40;12.77;;;-1.20;97.60;;;0.76;63.61;97402.94;5070670;28;20052;-51
2024/01/19 03:00:04;;;;;;;25.83;13.70;;;-1.20;97.40;;;0.80;64.13;97408.81;5070791;28;20049;-52
2024/01/19 03:02:32;;;;;;;28.93;13.30;;;-1.20;98.00;;;0.80;63.26;97403.56;5069779;28;20052;-51
2024/01/19 03:05:00;;;;;;;25.47;12.93;;;-1.30;96.60;;;0.73;63.76;97411.00;5070600;28;20365;-51
2024/01/19 03:07:28;;;;;;;24.27;13.60;;;-1.30;96.80;;;0.71;63.88;97416.34;5070702;28;20052;-54
2024/01/19 03:09:56;;;;;;;23.60;12.40;;;-1.40;97.70;;;0.59;64.17;97407.53;5070427;28;20059;-51
2024/01/19 03:12:23;;;;;;;21.53;13.40;;;-1.50;97.80;;;0.62;64.02;97410.91;5070305;28;20048;-53
2024/01/19 03:14:51;;;;;;;26.10;12.43;;;-1.50;98.40;;;0.68;64.07;97418.31;5086008;28;20049;-52
2024/01/19 03:17:19;;;;;;;22.93;12.97;;;-1.40;98.90;;;0.68;63.40;97420.94;5070519;28;20040;-52
2024/01/19 03:19:46;;;;;;;23.63;12.53;;;-1.40;98.40;;;0.69;64.07;97433.13;5070699;28;20040;-53
2024/01/19 03:22:14;;;;;;;25.90;13.20;;;-1.40;97.80;;;0.63;64.10;97428.31;5069998;28;20044;-51
2024/01/19 03:24:42;;;;;;;24.23;13.23;;;-1.50;97.20;;;0.59;63.55;97427.66;5070482;28;20045;-53
2024/01/19 03:27:10;;;;;;;27.67;13.10;;;-1.50;98.20;;;0.62;64.13;97435.34;5070371;28;20492;-51
2024/01/19 03:29:38;;;;;;;28.80;14.13;;;-1.50;99.50;;;0.56;63.69;97433.09;5070615;28;20037;-53
2024/01/19 03:32:06;;;;;;;24.73;12.57;;;-1.50;99.50;;;0.58;63.87;97431.22;5069969;28;20036;-50
2024/01/19 03:34:33;;;;;;;18.13;11.80;;;-1.50;99.70;;;0.56;63.97;97433.97;5068939;28;20044;-50
2024/01/19 03:37:03;;;;;;;29.03;13.33;;;-1.40;99.50;;;0.61;63.78;97444.13;5077193;28;20514;-52
2024/01/19 03:39:34;;;;;;;22.17;12.87;;;-1.40;99.40;;;0.62;64.12;97443.19;5070360;28;20067;-50
2024/01/19 03:42:02;;;;;;;22.03;12.23;;;-1.40;99.70;;;0.62;63.79;97440.56;5070050;28;20473;-52
2024/01/19 03:44:30;;;;;;;23.80;13.20;;;-1.40;98.70;;;0.64;64.02;97433.44;5070018;28;20503;-52
2024/01/19 03:46:59;;;;;;;30.70;13.07;;;-1.40;99.80;;;0.59;64.39;97433.75;5070795;28;20480;-51
2024/01/19 03:49:27;;;;;;;23.33;13.97;;;-1.40;99.60;;;0.64;63.83;97432.59;5062578;28;20047;-50
2024/01/19 03:52:07;;;;;;;22.90;13.30;;;-1.40;99.80;;;0.62;64.59;97440.56;5068752;28;20036;-51
2024/01/19 03:54:36;;;;;;;26.33;13.90;;;-1.40;98.70;;;0.63;63.66;97437.00;5063241;28;20033;-52
2024/01/19 03:57:06;;;;;;;20.43;12.53;;;-1.40;98.40;;;0.58;64.30;97426.84;5070187;28;20033;-49
2024/01/19 03:59:34;;;;;;;27.00;13.57;;;-1.40;99.20;;;0.58;63.86;97431.22;5069042;28;20085;-52
2024/01/19 04:02:02;;;;;;;28.17;13.47;;;-1.40;99.20;;;0.66;64.61;97435.94;5070201;28;20040;-53
2024/01/19 04:04:29;;;;;;;24.17;13.87;;;-1.40;99.10;;;0.67;63.84;97425.34;5073661;28;20055;-51
2024/01/19 04:06:57;;;;;;;23.13;12.97;;;-1.30;99.60;;;0.71;63.67;97433.84;5073643;28;20523;-51
2024/01/19 04:09:25;;;;;;;20.53;11.67;;;-1.30;98.30;;;0.72;63.73;97433.75;5065499;28;20416;-50
2024/01/19 04:11:53;;;;;;;23.30;12.07;;;-1.30;98.00;;;0.68;63.46;97436.66;5073278;28;20420;-53
2024/01/19 04:14:21;;;;;;;22.13;11.80;;;-1.30;98.00;;;0.66;64.12;97438.56;5073266;28;20049;-52
2024/01/19 04:16:49;;;;;;;22.97;11.97;;;-1.40;98.60;;;0.57;64.27;97442.66;5073637;28;20499;-52
2024/01/19 04:19:16;;;;;;;22.70;13.40;;;-1.40;96.90;;;0.50;64.03;97438.75;5073439;28;20048;-53
2024/01/19 04:21:44;;;;;;;26.07;11.33;;;-1.50;98.20;;;0.46;63.48;97440.75;5073308;28;20043;-50
2024/01/19 04:24:12;;;;;;;22.27;11.63;;;-1.50;97.50;;;0.40;64.13;97435.94;5072817;28;20048;-54
2024/01/19 04:26:39;;;;;;;26.07;12.37;;;-1.60;98.30;;;0.39;63.76;97429.84;5073387;28;20507;-50
2024/01/19 04:29:09;;;;;;;22.87;12.00;;;-1.60;99.30;;;0.36;63.56;97440.53;5071363;28;20041;-53
2024/01/19 04:31:37;;;;;;;21.17;12.27;;;-1.70;98.00;;;0.36;64.25;97439.69;5073167;28;20063;-51
2024/01/19 04:34:05;;;;;;;27.83;10.67;;;-1.60;99.00;;;0.37;64.20;97441.38;5072642;28;20496;-49
2024/01/19 04:36:32;;;;;;;21.27;11.73;;;-1.60;99.60;;;0.34;63.63;97449.44;5071175;28;20041;-50
2024/01/19 04:39:00;;;;;;;23.60;12.43;;;-1.70;98.40;;;0.26;64.29;97443.88;5073210;28;20063;-52
2024/01/19 04:41:28;;;;;;;28.37;12.87;;;-1.70;99.10;;;0.31;64.13;97447.88;5072811;28;20049;-51
2024/01/19 04:43:55;;;;;;;23.93;12.77;;;-1.70;99.50;;;0.31;64.14;97458.34;5072895;28;20052;-51
2024/01/19 04:46:23;;;;;;;19.17;11.43;;;-1.70;99.90;;;0.32;63.89;97457.38;5072929;28;20534;-51
2024/01/19 04:48:50;;;;;;;21.90;11.83;;;-1.70;99.60;;;0.38;64.04;97466.63;5071816;28;20041;-50
2024/01/19 04:51:18;;;;;;;24.47;12.83;;;-1.70;99.90;;;0.42;64.21;97472.50;5072988;28;20067;-55
2024/01/19 04:53:46;;;;;;;20.40;11.93;;;-1.60;99.90;;;0.46;64.05;97469.56;5072692;28;20037;-53
2024/01/19 04:56:14;;;;;;;25.77;12.70;;;-1.60;99.80;;;0.49;64.53;97477.22;5071613;28;20044;-52
2024/01/19 04:58:41;;;;;;;21.83;12.43;;;-1.50;99.90;;;0.53;63.92;97476.06;5072664;28;20047;-50
2024/01/19 05:01:09;;;;;;;21.53;12.57;;;-1.50;99.20;;;0.56;64.27;97485.50;5069876;28;20048;-49
2024/01/19 05:03:37;;;;;;;23.17;13.17;;;-1.40;98.70;;;0.52;64.12;97489.28;5071662;28;20045;-51
2024/01/19 05:06:05;;;;;;;18.77;12.13;;;-1.50;98.70;;;0.54;64.50;97490.88;5072693;28;20041;-50
2024/01/19 05:08:32;;;;;;;18.50;11.80;;;-1.50;99.00;;;0.57;63.91;97498.50;5072392;28;20040;-54
2024/01/19 05:11:00;;;;;;;22.50;12.10;;;-1.50;99.30;;;0.54;63.36;97498.72;5072762;28;20037;-51
2024/01/19 05:13:28;;;;;;;22.80;11.43;;;-1.50;98.20;;;0.50;63.60;97505.09;5071962;28;20496;-54
2024/01/19 05:15:55;;;;;;;26.53;12.57;;;-1.50;97.80;;;0.47;63.62;97502.69;5072246;28;20039;-53
2024/01/19 05:18:23;;;;;;;22.70;12.63;;;-1.60;98.30;;;0.47;63.75;97504.47;5054581;28;20079;-50
2024/01/19 05:20:51;;;;;;;26.77;14.90;;;-1.60;98.50;;;0.36;64.11;97507.78;5072477;28;20048;-55
2024/01/19 05:23:18;;;;;;;22.73;13.17;;;-1.70;98.80;;;0.41;63.99;97513.56;5070718;28;20052;-51
2024/01/19 05:25:46;;;;;;;23.30;12.97;;;-1.60;99.00;;;0.41;64.08;97513.56;5072219;28;20045;-50
2024/01/19 05:28:14;;;;;;;24.47;13.80;;;-1.60;99.10;;;0.43;63.45;97518.69;5071976;28;20036;-51
2024/01/19 05:30:42;;;;;;;22.27;12.57;;;-1.60;98.60;;;0.40;63.92;97517.13;5072219;28;20495;-52
2024/01/19 05:33:10;;;;;;;21.10;13.00;;;-1.70;98.50;;;0.34;63.58;97525.38;5071411;28;20048;-53
2024/01/19 05:35:38;;;;;;;27.13;12.73;;;-1.70;97.70;;;0.31;63.68;97529.06;5072208;28;20096;-53
2024/01/19 05:38:06;;;;;;;22.20;12.23;;;-1.70;98.80;;;0.23;63.62;97538.31;5072179;28;20051;-51
2024/01/19 05:40:34;;;;;;;19.57;11.53;;;-1.90;98.50;;;0.25;63.11;97536.44;5070653;28;20036;-49
2024/01/19 05:43:03;;;;;;;21.63;11.40;;;-1.80;99.20;;;0.26;64.07;97551.25;5071398;28;20045;-50
2024/01/19 05:45:31;;;;;;;23.33;11.70;;;-1.80;99.10;;;0.23;64.01;97551.41;5070624;28;20068;-53
2024/01/19 05:47:59;;;;;;;22.47;12.10;;;-1.90;98.70;;;0.27;63.73;97550.28;5070167;28;20416;-50
2024/01/19 05:50:27;;;;;;;23.43;12.63;;;-1.80;99.50;;;0.29;63.85;97564.97;5071589;28;20045;-50
2024/01/19 05:52:56;;;;;;;24.30;12.70;;;-1.70;98.80;;;0.32;63.15;97551.66;5071444;28;20488;-52
2024/01/19 05:55:24;;;;;;;22.73;12.93;;;-1.70;98.50;;;0.34;63.32;97559.44;5070386;28;20041;-53
2024/01/19 05:57:52;;;;;;;29.43;12.77;;;-1.60;98.50;;;0.39;63.12;97565.22;5069748;28;20107;-54
2024/01/19 06:00:20;;;;;;;23.40;13.57;;;-1.60;98.00;;;0.42;64.05;97569.41;5071401;28;20526;-51
2024/01/19 06:02:48;;;;;;;22.00;11.67;;;-1.60;98.00;;;0.45;63.48;97571.84;5071373;28;20037;-51
2024/01/19 06:05:16;;;;;;;27.47;13.40;;;-1.60;98.10;;;0.47;63.45;97583.88;5071500;28;20048;-50
2024/01/19 06:07:43;;;;;;;25.47;12.67;;;-1.50;98.20;;;0.47;63.58;97583.88;5070698;28;20504;-53
2024/01/19 06:10:11;;;;;;;28.17;13.50;;;-1.50;97.30;;;0.50;63.94;97593.31;5071202;28;20043;-53
2024/01/19 06:12:38;;;;;;;24.97;12.80;;;-1.50;97.20;;;0.46;63.82;97597.91;5071372;28;20401;-53
2024/01/19 06:15:07;;;;;;;21.67;12.10;;;-1.50;97.40;;;0.40;63.12;97606.16;5071295;28;20048;-53
2024/01/19 06:17:34;;;;;;;26.20;12.57;;;-1.60;96.60;;;0.39;63.73;97609.75;5070979;28;20044;-52
2024/01/19 06:20:02;;;;;;;25.53;13.27;;;-1.60;97.80;;;0.44;63.76;97612.88;5071779;28;20483;-50
2024/01/19 06:22:30;;;;;;;24.30;12.87;;;-1.50;98.50;;;0.43;63.57;97615.59;5070918;28;20051;-50
2024/01/19 06:24:58;;;;;;;24.77;12.93;;;-1.50;97.40;;;0.32;64.07;97614.53;5070532;28;20044;-53
2024/01/19 06:27:25;;;;;;;21.07;11.43;;;-1.60;97.90;;;0.39;64.19;97622.84;5071297;28;20060;-51
2024/01/19 06:29:53;;;;;;;21.83;12.63;;;-1.60;99.20;;;0.42;63.36;97621.78;5077722;28;20036;-52
2024/01/19 06:32:21;;;;;;;19.07;10.60;;;-1.60;98.30;;;0.36;63.69;97630.88;5070979;28;20044;-52
2024/01/19 06:34:48;;;;;;;22.77;11.63;;;-1.60;96.90;;;0.26;63.66;97632.41;5070932;28;20420;-53
2024/01/19 06:37:16;;;;;;;19.60;10.90;;;-1.70;97.60;;;0.19;63.25;97635.44;5071046;28;20072;-53
2024/01/19 06:39:46;;;;;;;21.50;11.80;;;-1.80;98.30;;;0.20;63.85;97638.88;5070781;28;20040;-51
2024/01/19 06:42:14;;;;;;;23.60;11.50;;;-1.80;99.20;;;0.13;64.16;97643.63;5069477;28;20055;-53
2024/01/19 06:44:43;;;;;;;25.53;13.10;;;-1.80;99.10;;;0.10;63.37;97649.09;5070922;28;20047;-51
2024/01/19 06:47:11;;;;;;;23.27;12.20;;;-1.90;99.30;;;0.07;63.42;97657.13;5070428;28;20048;-54
2024/01/19 06:49:39;;;;;;;17.67;10.13;;;-1.90;99.10;;;0.13;64.00;97658.50;5070608;28;20033;-49
2024/01/19 06:52:07;;;;;;;25.80;13.13;;;-1.90;98.70;;;0.09;64.10;97667.50;5061350;28;20040;-51
2024/01/19 06:54:34;;;;;;;26.37;13.40;;;-1.90;98.40;;;0.11;64.05;97674.31;5069413;28;20045;-49
2024/01/19 06:57:02;;;;;;;27.17;13.23;;;-1.90;98.90;;;0.10;64.02;97683.13;5061217;28;20077;-55
2024/01/19 06:59:32;;;;;;;24.00;13.40;;;-1.90;99.50;;;0.13;63.85;97684.69;5070930;28;20052;-48
2024/01/19 07:02:00;;;;;;;23.93;11.80;;;-1.90;99.00;;;0.13;64.25;97682.06;5070393;28;20048;-48
2024/01/19 07:04:27;;;;;;;27.80;12.70;;;-1.80;98.60;;;0.04;63.83;97685.25;5069405;28;20040;-52
2024/01/19 07:06:55;;;;;;;23.50;13.13;;;-1.90;98.40;;;0.06;64.42;97696.47;5070148;28;20045;-50
2024/01/19 07:09:26;;;;;;;22.77;10.97;;;-2.00;99.10;;;0.05;63.55;97695.63;5070857;28;20040;-51
2024/01/19 07:11:54;;;;;;;23.87;12.63;;;-2.00;98.30;;;-0.03;63.93;97706.59;5070362;28;20045;-50
2024/01/19 07:14:22;;;;;;;20.93;11.07;;;-2.10;99.50;;;-0.08;64.10;97713.88;5070698;28;20492;-51
2024/01/19 07:16:49;;;;;;;20.97;12.67;;;-2.10;99.40;;;-0.07;64.51;97712.94;5070683;28;20045;-51
2024/01/19 07:19:18;;;;;;;25.40;13.07;;;-2.10;99.60;;;-0.10;63.61;97714.91;5070670;28;20396;-51
2024/01/19 07:21:45;;;;;;;23.73;11.70;;;-2.10;99.70;;;-0.05;63.75;97723.31;5070411;28;20142;-50
2024/01/19 07:24:13;;;;;;;30.23;12.37;;;-2.00;99.70;;;-0.02;63.56;97725.72;5070383;28;20045;-48
2024/01/19 07:26:41;;;;;;;21.20;12.07;;;-2.10;99.50;;;0.04;64.22;97735.84;5060582;28;20044;-52
2024/01/19 07:29:09;;;;;;;24.23;12.10;;;-2.00;99.90;;;0.09;63.77;97736.41;5070531;28;20048;-49
2024/01/19 07:31:37;;;;;;;24.37;12.07;;;-1.90;99.60;;;0.12;63.44;97740.63;5070043;28;20048;-52
2024/01/19 07:34:04;;;;;;;23.23;12.73;;;-1.90;99.00;;;0.17;63.45;97741.16;5068541;28;20056;-51
2024/01/19 07:36:33;;;;;;;21.53;11.77;;;-1.90;98.90;;;0.21;64.24;97741.81;5072827;28;20041;-53
2024/01/19 07:39:00;;;;;;;25.10;11.83;;;-1.80;98.20;;;0.21;63.79;97745.28;5074215;28;20041;-48
2024/01/19 07:41:28;;;;;;;24.87;11.93;;;-1.90;97.80;;;0.18;63.83;97758.56;5070476;28;20415;-49
2024/01/19 07:43:56;;;;;;;22.20;12.40;;;-1.90;96.80;;;0.15;63.95;97766.59;5065946;28;20048;-50
2024/01/19 07:46:23;;;;;;;27.30;12.90;;;-2.00;98.20;;;0.15;63.88;97766.59;5067550;28;20044;-52
2024/01/19 07:48:51;;;;;;;27.37;14.57;;;-1.90;97.70;;;0.08;63.18;97765.28;5073918;28;20365;-54
2024/01/19 07:51:19;;;;;;;23.63;12.33;;;-2.00;98.00;;;0.08;63.43;97776.63;5072312;28;20049;-51
2024/01/19 07:53:47;;;;;;;24.70;14.13;;;-2.00;98.50;;;0.11;63.71;97775.59;5071648;28;20041;-50
2024/01/19 07:56:15;;;;;;;35.43;16.60;;;-2.00;99.20;;;0.12;63.88;97766.81;5080414;28;20148;-55
2024/01/19 07:58:43;;;;;;;25.40;15.27;;;-1.90;99.10;;;0.15;63.60;97774.47;5073769;28;20040;-54
2024/01/19 08:01:11;;;;;;;28.97;15.00;;;-1.90;99.00;;;0.15;63.80;97777.06;5073858;28;20484;-52
2024/01/19 08:03:39;;;;;;;28.30;15.23;;;-1.90;97.80;;;0.12;63.33;97785.13;5068448;28;20048;-51
2024/01/19 08:06:07;;;;;;;29.27;17.30;;;-2.00;96.70;;;0.09;63.13;97788.75;5074012;28;20418;-50
2024/01/19 08:08:35;;;;;;;26.17;14.97;;;-2.00;97.40;;;0.08;63.17;97799.31;5072505;28;20045;-54
2024/01/19 08:11:03;;;;;;;29.50;14.23;;;-2.00;97.50;;;0.06;62.90;97803.81;5073980;28;20033;-54
2024/01/19 08:13:30;;;;;;;28.63;15.60;;;-2.10;98.60;;;0.07;63.64;97801.09;5072071;28;20415;-55
2024/01/19 08:15:58;;;;;;;23.73;12.93;;;-2.00;98.90;;;0.10;62.81;97813.19;5073637;28;20393;-52
2024/01/19 08:18:25;;;;;;;26.23;12.93;;;-2.00;99.00;;;0.12;63.26;97814.78;5073993;28;20056;-52
2024/01/19 08:20:53;;;;;;;24.70;13.20;;;-1.90;98.50;;;0.12;63.18;97825.25;5073748;28;20491;-53
2024/01/19 08:23:21;;;;;;;21.93;12.53;;;-2.00;97.10;;;0.09;62.70;97820.19;5072992;28;20055;-50
2024/01/19 08:25:48;;;;;;;22.63;12.30;;;-2.00;98.60;;;0.09;63.32;97822.78;5072076;28;20041;-50
2024/01/19 08:28:16;;;;;;;29.63;13.13;;;-2.00;98.80;;;0.06;63.70;97819.50;5073584;28;20044;-52
2024/01/19 08:30:44;;;;;;;30.00;15.07;;;-2.00;97.60;;;0.03;63.80;97828.41;5071231;28;20099;-51
2024/01/19 08:33:12;;;;;;;25.60;13.93;;;-2.10;99.40;;;0.07;63.81;97834.31;5072378;28;20033;-54
2024/01/19 08:35:40;;;;;;;23.70;13.83;;;-2.00;99.70;;;0.03;63.13;97828.41;5073238;28;20043;-51
2024/01/19 08:38:08;;;;;;;29.63;14.50;;;-2.00;98.90;;;0.03;63.38;97840.66;5073384;28;20040;-53
2024/01/19 08:40:36;;;;;;;28.87;13.90;;;-2.10;99.30;;;0.03;63.55;97838.03;5071611;28;20500;-58
2024/01/19 08:43:03;;;;;;;26.00;12.87;;;-2.00;99.90;;;-0.03;63.77;97849.72;5072986;28;20537;-51
2024/01/19 08:45:31;;;;;;;26.80;14.80;;;-2.00;99.50;;;-0.06;64.25;97853.34;5073025;28;20071;-51
2024/01/19 08:47:59;;;;;;;30.10;15.63;;;-2.10;99.90;;;-0.10;64.49;97858.84;5072756;28;20417;-51
2024/01/19 08:50:28;;;;;;;31.30;14.37;;;-2.10;99.90;;;-0.13;64.19;97862.50;5070833;28;20051;-55
2024/01/19 08:52:55;;;;;;;28.37;15.00;;;-2.00;99.90;;;0.01;64.64;97866.91;5070722;28;20033;-51
2024/01/19 08:55:23;;;;;;;34.27;14.77;;;-1.90;99.90;;;-0.02;64.97;97872.31;5054521;28;20048;-51
2024/01/19 08:57:51;;;;;;;32.20;15.87;;;-1.80;99.90;;;0.09;64.84;97864.69;5072486;28;20040;-52
2024/01/19 09:00:19;;;;;;;30.83;16.77;;;-1.80;99.90;;;0.08;64.55;97870.00;5070803;28;20057;-54
2024/01/19 09:02:50;;;;;;;30.80;16.27;;;-1.80;99.90;;;-0.10;64.74;97870.16;5072194;28;20040;-54
2024/01/19 09:05:29;;;;;;;34.27;17.47;;;-2.00;99.90;;;-0.06;64.84;97871.69;5072262;28;20519;-51
2024/01/19 09:07:58;;;;;;;32.93;16.57;;;-1.90;99.90;;;0.13;65.36;97887.13;5071949;28;20291;-53
2024/01/19 09:10:26;;;;;;;34.87;15.83;;;-1.70;99.90;;;0.06;65.53;97883.22;5072606;28;20045;-54
2024/01/19 09:12:54;;;;;;;30.67;16.67;;;-1.70;99.90;;;0.11;65.89;97885.53;5066135;28;20415;-54
2024/01/19 09:15:21;;;;;;;31.60;16.50;;;-1.70;99.90;;;0.24;65.86;97896.16;5072352;28;20047;-54
2024/01/19 09:17:49;;;;;;;28.67;16.13;;;-1.60;99.90;;;0.14;65.13;97890.63;5062850;28;20044;-51
2024/01/19 09:20:17;;;;;;;33.63;16.87;;;-1.70;99.90;;;0.19;65.27;97901.63;5072486;28;20067;-50
2024/01/19 09:22:44;;;;;;;33.13;16.67;;;-1.70;99.90;;;0.20;65.00;97908.56;5072043;28;20119;-50
2024/01/19 09:25:13;;;;;;;29.07;15.50;;;-1.70;99.90;;;0.13;64.95;97918.56;5072188;28;20045;-54
2024/01/19 09:27:40;;;;;;;26.10;14.70;;;-1.70;99.90;;;0.16;65.77;97926.25;5072120;28;20052;-52
2024/01/19 09:30:08;;;;;;;30.67;16.30;;;-1.70;99.90;;;0.24;65.61;97933.66;5072079;28;20047;-54
2024/01/19 09:32:40;;;;;;;29.97;16.30;;;-1.70;99.90;;;0.31;64.66;97929.75;5071171;28;20048;-50
2024/01/19 09:35:08;;;;;;;28.73;15.63;;;-1.60;99.90;;;0.38;65.55;97931.03;5072054;28;20033;-49
2024/01/19 09:37:36;;;;;;;27.97;14.77;;;-1.50;99.90;;;0.47;64.99;97934.09;5071972;28;20048;-48
2024/01/19 09:40:04;;;;;;;29.17;16.63;;;-1.50;99.90;;;0.54;64.98;97935.38;5071944;28;20044;-50
2024/01/19 09:42:33;;;;;;;32.83;17.07;;;-1.40;99.90;;;0.61;64.65;97938.50;5071296;28;20062;-52
2024/01/19 09:45:04;;;;;;;32.07;17.30;;;-1.40;99.90;;;0.66;64.59;97949.53;5070178;28;20040;-52
2024/01/19 09:48:06;;;;;;;34.00;18.17;;;-1.30;99.90;;;0.72;64.79;97957.88;5071729;28;20048;-51
2024/01/19 09:50:36;;;;;;;28.80;15.47;;;-1.20;99.60;;;0.75;64.45;97962.09;5070559;28;20044;-52
2024/01/19 09:53:19;;;;;;;31.40;16.03;;;-1.20;99.90;;;0.78;64.83;97970.59;5069676;28;20051;-51
2024/01/19 09:55:47;;;;;;;33.43;17.40;;;-1.20;99.10;;;0.81;63.93;97969.56;5070181;28;20041;-52
2024/01/19 09:58:16;;;;;;;32.43;16.63;;;-1.20;99.30;;;0.85;64.49;97973.69;5053464;28;20112;-53
2024/01/19 10:00:47;;;;;;;31.13;15.33;;;-1.10;99.40;;;0.87;64.48;97974.44;5070874;28;20530;-49
2024/01/19 10:03:17;;;;;;;31.57;16.63;;;-1.10;98.70;;;0.91;64.33;97977.72;5071320;28;20052;-52
2024/01/19 10:05:45;;;;;;;35.83;17.43;;;-1.10;99.00;;;0.92;64.10;97979.41;5071293;28;20045;-49
2024/01/19 10:08:13;;;;;;;37.57;16.37;;;-1.10;98.70;;;0.93;64.45;97987.19;5070413;28;20048;-51
2024/01/19 10:10:44;;;;;;;30.47;16.97;;;-1.00;98.90;;;0.94;63.97;97990.66;5071162;28;20052;-54
2024/01/19 10:13:13;;;;;;;32.30;17.87;;;-1.00;98.40;;;0.95;63.63;97995.81;5069966;28;20036;-50
2024/01/19 10:15:43;;;;;;;30.10;16.03;;;-1.00;99.10;;;1.00;63.98;98003.38;5071123;28;20040;-52
2024/01/19 10:18:11;;;;;;;30.73;15.47;;;-0.90;98.30;;;0.95;64.07;98002.81;5071385;28;20036;-53